createdAt,value
2019-05-07T00:01:09.148Z,40.60
2019-05-07T00:03:37.903Z,40.50
2019-05-07T00:06:06.664Z,40.50
2019-05-07T00:08:35.453Z,40.50
2019-05-07T00:11:04.215Z,40.50
2019-05-07T00:13:33.451Z,40.40
2019-05-07T00:16:02.657Z,40.50
2019-05-07T00:18:32.165Z,40.40
2019-05-07T00:21:03.351Z,40.40
2019-05-07T00:23:32.519Z,41.00
2019-05-07T00:26:02.655Z,40.40
2019-05-07T00:28:32.471Z,40.30
2019-05-07T00:31:02.901Z,40.20
2019-05-07T00:33:32.541Z,40.30
2019-05-07T00:36:12.282Z,40.30
2019-05-07T00:38:42.803Z,40.20
2019-05-07T00:41:22.890Z,40.20
2019-05-07T00:43:53.484Z,40.20
2019-05-07T00:46:25.265Z,40.20
2019-05-07T00:48:54.010Z,40.20
2019-05-07T00:51:28.632Z,40.20
2019-05-07T00:53:57.397Z,40.20
2019-05-07T00:56:26.142Z,40.20
2019-05-07T00:58:54.880Z,40.20
2019-05-07T01:01:24.480Z,40.10
2019-05-07T01:03:53.536Z,40.10
2019-05-07T01:06:25.992Z,40.10
2019-05-07T01:08:52.936Z,40.20
2019-05-07T01:11:22.620Z,40.10
2019-05-07T01:13:52.131Z,40.10
2019-05-07T01:16:22.193Z,40.10
2019-05-07T01:18:53.847Z,40.10
2019-05-07T01:21:22.735Z,40.10
2019-05-07T01:23:52.320Z,40.10
2019-05-07T01:26:22.376Z,40.20
2019-05-07T01:29:02.959Z,40.20
2019-05-07T01:31:35.689Z,40.20
2019-05-07T01:34:16.397Z,40.10
2019-05-07T01:36:45.152Z,40.10
2019-05-07T01:39:14.004Z,40.10
2019-05-07T01:41:42.770Z,40.10
2019-05-07T01:44:12.830Z,40.20
2019-05-07T01:46:42.270Z,40.10
2019-05-07T01:49:12.507Z,40.10
2019-05-07T01:51:42.307Z,40.10
2019-05-07T01:54:12.951Z,40.10
2019-05-07T01:56:42.752Z,40.00
2019-05-07T01:59:12.132Z,40.10
2019-05-07T02:01:42.923Z,40.10
2019-05-07T02:04:18.758Z,40.00
2019-05-07T02:07:05.504Z,40.10
2019-05-07T02:09:42.419Z,40.00
2019-05-07T02:12:23.661Z,40.00
2019-05-07T02:14:53.051Z,40.10
2019-05-07T02:17:22.859Z,40.00
2019-05-07T02:19:52.736Z,40.00
2019-05-07T02:22:22.725Z,40.00
2019-05-07T02:24:52.339Z,40.00
2019-05-07T02:27:22.060Z,40.00
2019-05-07T02:29:52.923Z,40.00
2019-05-07T02:32:24.104Z,40.10
2019-05-07T02:34:54.479Z,40.00
2019-05-07T02:37:35.753Z,40.10
2019-05-07T02:40:22.945Z,40.10
2019-05-07T02:42:53.948Z,40.00
2019-05-07T02:45:29.300Z,40.00
2019-05-07T02:47:58.119Z,40.00
2019-05-07T02:50:35.875Z,40.00
2019-05-07T02:53:13.102Z,40.00
2019-05-07T02:55:46.185Z,40.10
2019-05-07T02:58:14.966Z,40.00
2019-05-07T03:00:43.806Z,40.00
2019-05-07T03:03:13.726Z,40.00
2019-05-07T03:05:43.481Z,40.00
2019-05-07T03:08:13.497Z,40.00
2019-05-07T03:10:43.516Z,40.00
2019-05-07T03:13:13.791Z,40.10
2019-05-07T03:15:43.807Z,40.00
2019-05-07T03:18:13.859Z,40.00
2019-05-07T03:20:48.034Z,40.00
2019-05-07T03:23:19.669Z,40.00
2019-05-07T03:26:23.155Z,40.00
2019-05-07T03:28:53.848Z,40.00
2019-05-07T03:31:47.251Z,40.00
2019-05-07T03:34:37.011Z,40.00
2019-05-07T03:37:06.788Z,40.20
2019-05-07T03:39:35.670Z,40.20
2019-05-07T03:42:04.500Z,40.10
2019-05-07T03:44:54.017Z,40.70
2019-05-07T03:47:32.888Z,40.10
2019-05-07T03:50:02.976Z,40.10
2019-05-07T03:52:33.420Z,40.20
2019-05-07T03:55:03.751Z,40.00
2019-05-07T03:57:33.316Z,40.10
2019-05-07T04:00:04.172Z,40.10
2019-05-07T04:02:33.345Z,40.10
2019-05-07T04:05:04.383Z,40.10
2019-05-07T04:07:33.654Z,40.10
2019-05-07T04:10:04.708Z,40.20
2019-05-07T04:12:34.228Z,40.20
2019-05-07T04:15:03.609Z,40.10
2019-05-07T04:17:33.914Z,40.00
2019-05-07T04:20:04.392Z,40.00
2019-05-07T04:22:34.617Z,39.70
2019-05-07T04:25:23.977Z,39.30
2019-05-07T04:28:05.577Z,39.10
2019-05-07T04:30:35.248Z,38.70
2019-05-07T04:33:06.828Z,38.50
2019-05-07T04:35:53.962Z,38.30
2019-05-07T04:38:23.891Z,38.10
2019-05-07T04:40:53.700Z,38.00
2019-05-07T04:43:23.389Z,37.70
2019-05-07T04:45:53.635Z,37.60
2019-05-07T04:48:23.469Z,37.40
2019-05-07T04:50:54.467Z,37.30
2019-05-07T04:53:23.871Z,37.20
2019-05-07T04:55:53.600Z,37.20
2019-05-07T04:58:26.716Z,37.30
2019-05-07T05:00:55.738Z,37.50
2019-05-07T05:03:26.584Z,37.90
2019-05-07T05:05:55.509Z,38.10
2019-05-07T05:08:24.403Z,38.40
2019-05-07T05:10:54.029Z,38.70
2019-05-07T05:13:23.753Z,38.80
2019-05-07T05:15:52.943Z,39.00
2019-05-07T05:18:22.136Z,39.40
2019-05-07T05:21:02.847Z,39.70
2019-05-07T05:23:49.491Z,39.80
2019-05-07T05:26:18.626Z,39.90
2019-05-07T05:28:47.414Z,39.70
2019-05-07T05:31:16.262Z,39.50
2019-05-07T05:33:45.063Z,40.00
2019-05-07T05:36:16.699Z,40.10
2019-05-07T05:38:44.657Z,40.20
2019-05-07T05:41:14.370Z,40.20
2019-05-07T05:44:05.587Z,40.30
2019-05-07T05:46:34.689Z,40.20
2019-05-07T05:49:03.461Z,40.10
2019-05-07T05:51:44.158Z,40.00
2019-05-07T05:54:35.064Z,40.00
2019-05-07T05:57:32.409Z,39.90
2019-05-07T06:00:22.111Z,39.70
2019-05-07T06:03:19.282Z,39.50
2019-05-07T06:05:54.451Z,39.30
2019-05-07T06:08:52.649Z,39.30
2019-05-07T06:11:43.606Z,39.20
2019-05-07T06:14:22.184Z,39.00
2019-05-07T06:17:25.623Z,39.20
2019-05-07T06:20:13.794Z,39.20
2019-05-07T06:23:04.953Z,39.60
2019-05-07T06:25:33.843Z,38.90
2019-05-07T06:28:02.726Z,38.70
2019-05-07T06:30:33.708Z,38.60
2019-05-07T06:33:02.845Z,38.70
2019-05-07T06:35:32.473Z,38.90
2019-05-07T06:38:04.373Z,39.00
2019-05-07T06:40:52.011Z,38.90
2019-05-07T06:43:29.928Z,38.90
2019-05-07T06:45:59.181Z,38.90
2019-05-07T06:48:40.899Z,38.90
2019-05-07T06:50:58.781Z,38.90
2019-05-07T06:53:28.408Z,38.90
2019-05-07T06:55:58.317Z,38.90
2019-05-07T06:58:32.962Z,38.90
2019-05-07T07:01:32.967Z,38.70
2019-05-07T07:04:15.450Z,38.70
2019-05-07T07:07:23.958Z,38.70
2019-05-07T07:09:48.741Z,38.70
2019-05-07T07:12:24.005Z,38.70
2019-05-07T07:14:51.805Z,38.60
2019-05-07T07:17:23.120Z,38.60
2019-05-07T07:19:53.114Z,38.60
2019-05-07T07:22:22.350Z,38.50
2019-05-07T07:24:53.142Z,38.50
2019-05-07T07:27:22.772Z,38.20
2019-05-07T07:30:04.214Z,38.20
2019-05-07T07:32:36.529Z,38.20
2019-05-07T07:35:06.731Z,38.20
2019-05-07T07:37:39.194Z,38.30
2019-05-07T07:40:37.007Z,38.10
2019-05-07T07:43:07.156Z,38.10
2019-05-07T07:45:36.303Z,38.10
2019-05-07T07:48:05.065Z,38.00
2019-05-07T07:50:33.870Z,37.90
2019-05-07T07:53:02.759Z,37.90
2019-05-07T07:55:42.474Z,38.00
2019-05-07T07:58:31.554Z,38.10
2019-05-07T08:01:19.258Z,38.30
2019-05-07T08:03:48.054Z,38.20
2019-05-07T08:06:16.822Z,38.30
2019-05-07T08:08:46.716Z,38.40
2019-05-07T08:11:15.518Z,38.30
2019-05-07T08:13:44.292Z,38.40
2019-05-07T08:16:13.113Z,38.40
2019-05-07T08:18:43.534Z,38.50
2019-05-07T08:21:12.616Z,38.50
2019-05-07T08:23:42.396Z,38.60
2019-05-07T08:26:12.675Z,38.60
2019-05-07T08:28:41.996Z,38.70
2019-05-07T08:31:32.019Z,38.70
2019-05-07T08:34:25.693Z,38.70
2019-05-07T08:36:54.582Z,38.70
2019-05-07T08:39:25.208Z,38.70
2019-05-07T08:41:54.991Z,38.80
2019-05-07T08:44:27.830Z,38.80
2019-05-07T08:47:13.224Z,38.80
2019-05-07T08:49:43.519Z,38.80
2019-05-07T08:52:12.543Z,38.80
2019-05-07T08:54:42.815Z,38.90
2019-05-07T08:57:12.258Z,38.90
2019-05-07T08:59:43.711Z,38.80
2019-05-07T09:02:12.661Z,38.80
2019-05-07T09:04:44.017Z,38.80
2019-05-07T09:07:13.125Z,38.70
2019-05-07T09:09:42.620Z,38.70
2019-05-07T09:12:12.385Z,38.70
2019-05-07T09:14:42.571Z,38.70
2019-05-07T09:17:12.798Z,38.70
2019-05-07T09:19:50.649Z,38.80
2019-05-07T09:22:12.885Z,38.80
2019-05-07T09:24:42.405Z,38.80
2019-05-07T09:27:16.998Z,38.70
2019-05-07T09:30:12.662Z,38.70
2019-05-07T09:32:46.226Z,38.70
2019-05-07T09:35:21.631Z,38.70
2019-05-07T09:37:52.608Z,38.70
2019-05-07T09:40:21.752Z,38.70
2019-05-07T09:42:52.601Z,38.70
2019-05-07T09:45:22.503Z,38.70
2019-05-07T09:47:52.275Z,38.60
2019-05-07T09:50:22.017Z,38.60
2019-05-07T09:52:51.884Z,38.60
2019-05-07T09:55:23.165Z,38.60
2019-05-07T09:57:52.749Z,38.50
2019-05-07T10:00:22.635Z,38.50
2019-05-07T10:02:52.841Z,38.60
2019-05-07T10:05:21.804Z,38.60
2019-05-07T10:07:52.624Z,38.50
2019-05-07T10:10:22.315Z,38.50
2019-05-07T10:13:03.325Z,38.50
2019-05-07T10:15:33.143Z,38.50
2019-05-07T10:18:12.539Z,38.60
2019-05-07T10:20:42.097Z,38.50
2019-05-07T10:23:19.658Z,38.60
2019-05-07T10:25:54.717Z,38.60
2019-05-07T10:28:23.573Z,38.50
2019-05-07T10:30:53.025Z,38.50
2019-05-07T10:33:22.846Z,38.50
2019-05-07T10:35:52.871Z,38.50
2019-05-07T10:38:21.950Z,38.50
2019-05-07T10:40:50.838Z,38.50
2019-05-07T10:43:22.051Z,38.50
2019-05-07T10:46:05.706Z,38.50
2019-05-07T10:48:56.633Z,38.50
2019-05-07T10:51:25.849Z,38.60
2019-05-07T10:53:54.696Z,38.50
2019-05-07T10:56:23.565Z,38.50
2019-05-07T10:58:52.439Z,38.50
2019-05-07T11:01:28.907Z,38.50
2019-05-07T11:03:57.770Z,39.10
2019-05-07T11:06:26.538Z,38.40
2019-05-07T11:08:55.306Z,38.30
2019-05-07T11:11:24.197Z,38.40
2019-05-07T11:13:55.861Z,38.40
2019-05-07T11:16:25.133Z,39.00
2019-05-07T11:18:53.923Z,38.20
2019-05-07T11:21:33.465Z,38.20
2019-05-07T11:24:03.422Z,38.20
2019-05-07T11:26:34.045Z,38.20
2019-05-07T11:29:02.829Z,38.20
2019-05-07T11:31:33.062Z,38.10
2019-05-07T11:34:02.745Z,38.10
2019-05-07T11:36:31.971Z,38.10
2019-05-07T11:39:02.345Z,38.10
2019-05-07T11:41:42.286Z,38.10
2019-05-07T11:44:16.621Z,38.00
2019-05-07T11:47:03.301Z,38.00
2019-05-07T11:49:52.456Z,38.10
2019-05-07T11:52:27.957Z,38.00
2019-05-07T11:54:56.753Z,38.00
2019-05-07T11:57:25.625Z,38.10
2019-05-07T11:59:54.472Z,38.00
2019-05-07T12:02:25.749Z,38.10
2019-05-07T12:04:54.521Z,38.00
2019-05-07T12:07:23.294Z,38.10
2019-05-07T12:09:52.625Z,38.00
2019-05-07T12:12:22.146Z,38.00
2019-05-07T12:14:52.589Z,38.00
2019-05-07T12:17:22.404Z,37.90
2019-05-07T12:19:52.679Z,37.90
2019-05-07T12:22:46.559Z,37.80
2019-05-07T12:25:16.038Z,37.80
2019-05-07T12:27:45.034Z,37.80
2019-05-07T12:30:17.021Z,37.80
2019-05-07T12:32:57.149Z,37.80
2019-05-07T12:35:26.014Z,37.90
2019-05-07T12:37:54.816Z,37.80
2019-05-07T12:40:23.570Z,37.90
2019-05-07T12:42:52.477Z,37.90
2019-05-07T12:45:22.852Z,37.80
2019-05-07T12:47:52.965Z,37.80
2019-05-07T12:50:22.053Z,37.80
2019-05-07T12:53:02.078Z,37.70
2019-05-07T12:55:34.741Z,37.60
2019-05-07T12:58:03.493Z,37.80
2019-05-07T13:00:49.062Z,38.20
2019-05-07T13:03:26.875Z,37.70
2019-05-07T13:05:55.818Z,37.60
2019-05-07T13:08:24.689Z,37.50
2019-05-07T13:10:53.465Z,37.50
2019-05-07T13:13:22.232Z,37.50
2019-05-07T13:15:51.795Z,37.50
2019-05-07T13:18:22.531Z,37.50
2019-05-07T13:20:51.918Z,37.40
2019-05-07T13:23:22.524Z,37.50
2019-05-07T13:26:10.771Z,37.40
2019-05-07T13:28:39.639Z,37.40
2019-05-07T13:31:08.441Z,37.60
2019-05-07T13:33:37.210Z,37.60
2019-05-07T13:36:05.998Z,37.50
2019-05-07T13:38:56.853Z,37.60
2019-05-07T13:41:47.707Z,37.70
2019-05-07T13:44:31.783Z,37.60
2019-05-07T13:47:18.408Z,37.70
2019-05-07T13:49:48.689Z,37.70
2019-05-07T13:52:18.471Z,37.90
2019-05-07T13:54:47.348Z,38.00
2019-05-07T13:57:16.581Z,38.40
2019-05-07T13:59:45.507Z,39.10
2019-05-07T14:02:16.461Z,39.10
2019-05-07T14:04:46.898Z,39.00
2019-05-07T14:07:16.191Z,39.20
2019-05-07T14:09:44.981Z,39.20
2019-05-07T14:12:13.807Z,39.10
2019-05-07T14:14:42.715Z,39.10
2019-05-07T14:17:12.661Z,39.10
2019-05-07T14:19:42.381Z,39.10
2019-05-07T14:22:16.445Z,39.10
2019-05-07T14:24:45.805Z,39.10
2019-05-07T14:27:22.916Z,39.00
2019-05-07T14:29:52.333Z,39.10
2019-05-07T14:32:30.984Z,39.20
2019-05-07T14:35:24.697Z,39.20
2019-05-07T14:38:13.704Z,39.20
2019-05-07T14:40:42.368Z,39.30
2019-05-07T14:43:32.466Z,39.30
2019-05-07T14:46:02.717Z,39.20
2019-05-07T14:48:31.977Z,39.20
2019-05-07T14:51:02.216Z,39.20
2019-05-07T14:53:32.784Z,39.20
2019-05-07T14:56:02.517Z,39.20
2019-05-07T14:58:42.290Z,39.10
2019-05-07T15:01:14.373Z,39.10
2019-05-07T15:04:02.879Z,39.00
2019-05-07T15:06:34.539Z,38.90
2019-05-07T15:09:05.485Z,39.10
2019-05-07T15:11:42.793Z,39.00
2019-05-07T15:14:17.878Z,39.00
2019-05-07T15:16:48.157Z,39.00
2019-05-07T15:19:17.323Z,38.90
2019-05-07T15:21:46.720Z,38.90
2019-05-07T15:24:15.896Z,39.00
2019-05-07T15:26:46.856Z,39.10
2019-05-07T15:29:25.683Z,39.20
2019-05-07T15:32:14.230Z,39.30
2019-05-07T15:34:54.728Z,39.10
2019-05-07T15:37:27.984Z,39.30
2019-05-07T15:39:56.637Z,39.30
2019-05-07T15:42:28.852Z,39.00
2019-05-07T15:45:18.120Z,39.40
2019-05-07T15:47:58.012Z,39.40
2019-05-07T15:50:32.162Z,39.50
2019-05-07T15:53:16.296Z,39.40
2019-05-07T15:56:03.192Z,39.40
2019-05-07T15:59:15.242Z,39.30
2019-05-07T16:02:45.137Z,39.10
2019-05-07T16:05:15.235Z,39.00
2019-05-07T16:08:04.433Z,38.70
2019-05-07T16:10:34.285Z,38.80
2019-05-07T16:13:06.054Z,38.70
2019-05-07T16:15:35.267Z,38.50
2019-05-07T16:18:23.626Z,38.30
2019-05-07T16:20:57.479Z,38.10
2019-05-07T16:23:26.569Z,38.10
2019-05-07T16:25:59.475Z,38.10
2019-05-07T16:28:38.105Z,38.10
2019-05-07T16:31:24.653Z,37.90
2019-05-07T16:34:07.302Z,37.70
2019-05-07T16:36:42.958Z,37.20
2019-05-07T16:39:32.896Z,35.90
2019-05-07T16:42:08.225Z,35.30
2019-05-07T16:44:37.473Z,35.10
2019-05-07T16:47:12.039Z,34.90
2019-05-07T16:49:42.471Z,34.80
2019-05-07T16:52:46.598Z,35.50
2019-05-07T16:55:17.233Z,34.70
2019-05-07T16:58:02.573Z,34.70
2019-05-07T17:00:36.725Z,34.70
2019-05-07T17:03:35.307Z,34.70
2019-05-07T17:06:42.568Z,34.70
2019-05-07T17:09:22.332Z,34.70
2019-05-07T17:12:03.412Z,34.70
2019-05-07T17:14:42.613Z,34.70
2019-05-07T17:17:18.155Z,34.60
2019-05-07T17:19:53.944Z,34.50
2019-05-07T17:22:23.010Z,34.50
2019-05-07T17:24:52.443Z,34.50
2019-05-07T17:27:22.718Z,34.50
2019-05-07T17:29:52.374Z,35.20
2019-05-07T17:32:22.908Z,36.10
2019-05-07T17:34:52.883Z,37.30
2019-05-07T17:37:22.634Z,38.20
2019-05-07T17:40:32.057Z,38.80
2019-05-07T17:43:03.225Z,38.70
2019-05-07T17:45:33.330Z,37.80
2019-05-07T17:48:03.239Z,37.10
2019-05-07T17:50:39.236Z,37.40
2019-05-07T17:53:11.830Z,37.50
2019-05-07T17:55:42.264Z,37.30
2019-05-07T17:58:14.333Z,37.70
2019-05-07T18:00:45.617Z,37.60
2019-05-07T18:03:35.326Z,38.50
2019-05-07T18:06:04.491Z,38.80
2019-05-07T18:08:33.617Z,39.00
2019-05-07T18:11:17.449Z,39.10
2019-05-07T18:13:34.139Z,39.90
2019-05-07T18:16:41.978Z,40.50
2019-05-07T18:19:44.204Z,40.50
2019-05-07T18:22:22.185Z,40.60
2019-05-07T18:25:04.698Z,40.50
2019-05-07T18:27:36.682Z,41.10
2019-05-07T18:30:09.799Z,40.20
2019-05-07T18:32:43.960Z,40.10
2019-05-07T18:35:13.032Z,39.90
2019-05-07T18:37:52.605Z,39.60
2019-05-07T18:40:23.222Z,39.50
2019-05-07T18:42:54.695Z,39.30
2019-05-07T18:45:23.710Z,39.20
2019-05-07T18:47:57.110Z,39.10
2019-05-07T18:50:23.329Z,39.00
2019-05-07T18:52:55.426Z,39.00
2019-05-07T18:55:24.614Z,38.90
2019-05-07T18:57:53.752Z,38.90
2019-05-07T19:00:29.088Z,38.90
2019-05-07T19:02:58.196Z,38.90
2019-05-07T19:05:27.361Z,38.80
2019-05-07T19:08:05.438Z,38.80
2019-05-07T19:10:27.533Z,38.90
2019-05-07T19:12:56.732Z,38.80
2019-05-07T19:15:25.919Z,38.80
2019-05-07T19:17:55.230Z,38.90
2019-05-07T19:20:24.355Z,38.80
2019-05-07T19:22:53.606Z,38.90
2019-05-07T19:25:22.519Z,38.80
2019-05-07T19:27:52.619Z,39.20
2019-05-07T19:30:22.318Z,39.10
2019-05-07T19:32:52.173Z,39.10
2019-05-07T19:35:23.078Z,39.00
2019-05-07T19:37:52.940Z,38.90
2019-05-07T19:40:22.162Z,38.80
2019-05-07T19:42:52.281Z,38.80
2019-05-07T19:45:24.289Z,38.70
2019-05-07T19:47:52.419Z,38.60
2019-05-07T19:50:24.521Z,38.50
2019-05-07T19:52:55.267Z,38.60
2019-05-07T19:55:24.516Z,38.50
2019-05-07T19:58:00.892Z,38.70
2019-05-07T20:00:32.582Z,38.50
2019-05-07T20:03:04.011Z,38.50
2019-05-07T20:05:32.971Z,38.50
2019-05-07T20:08:04.536Z,38.50
2019-05-07T20:10:42.216Z,38.60
2019-05-07T20:13:12.502Z,38.50
2019-05-07T20:15:44.204Z,38.60
2019-05-07T20:18:15.309Z,38.60
2019-05-07T20:20:44.486Z,38.70
2019-05-07T20:23:13.699Z,38.70
2019-05-07T20:25:42.979Z,38.70
2019-05-07T20:28:16.549Z,38.70
2019-05-07T20:30:45.111Z,38.70
2019-05-07T20:33:14.057Z,38.80
2019-05-07T20:35:43.795Z,38.80
2019-05-07T20:38:13.078Z,38.90
2019-05-07T20:40:42.507Z,38.90
2019-05-07T20:43:12.618Z,39.00
2019-05-07T20:45:43.666Z,39.00
2019-05-07T20:48:12.697Z,39.00
2019-05-07T20:50:42.477Z,39.10
2019-05-07T20:53:11.750Z,39.00
2019-05-07T20:55:55.801Z,39.10
2019-05-07T20:58:24.814Z,39.10
2019-05-07T21:00:53.792Z,39.10
2019-05-07T21:03:23.741Z,39.20
2019-05-07T21:05:53.999Z,39.20
2019-05-07T21:08:23.156Z,39.20
2019-05-07T21:10:53.658Z,39.30
2019-05-07T21:13:32.396Z,39.30
2019-05-07T21:15:53.478Z,39.30
2019-05-07T21:18:23.243Z,39.30
2019-05-07T21:20:53.122Z,39.40
2019-05-07T21:23:23.171Z,39.50
2019-05-07T21:25:54.890Z,39.50
2019-05-07T21:28:24.030Z,39.50
2019-05-07T21:30:53.227Z,39.50
2019-05-07T21:33:23.075Z,39.50
2019-05-07T21:35:52.710Z,39.50
2019-05-07T21:38:22.465Z,39.60
2019-05-07T21:40:51.915Z,39.60
2019-05-07T21:43:22.147Z,39.60
2019-05-07T21:45:52.993Z,39.60
2019-05-07T21:48:28.575Z,39.60
2019-05-07T21:50:57.570Z,39.60
2019-05-07T21:53:32.499Z,39.80
2019-05-07T21:56:12.190Z,39.70
2019-05-07T21:58:44.616Z,39.80
2019-05-07T22:01:35.426Z,39.80
2019-05-07T22:04:04.586Z,39.80
2019-05-07T22:06:34.429Z,39.80
2019-05-07T22:09:04.949Z,39.80
2019-05-07T22:11:34.092Z,39.80
2019-05-07T22:14:03.316Z,39.90
2019-05-07T22:16:33.010Z,39.90
2019-05-07T22:19:02.678Z,39.90
2019-05-07T22:21:33.891Z,39.90
2019-05-07T22:24:02.994Z,39.90
2019-05-07T22:26:32.413Z,39.90
2019-05-07T22:29:03.122Z,39.90
2019-05-07T22:31:53.009Z,39.90
2019-05-07T22:34:39.834Z,40.00
2019-05-07T22:37:12.615Z,40.00
2019-05-07T22:39:42.072Z,40.00
2019-05-07T22:42:11.954Z,40.00
2019-05-07T22:44:42.578Z,40.00
2019-05-07T22:47:22.588Z,40.00
2019-05-07T22:49:53.626Z,40.00
2019-05-07T22:52:23.153Z,40.10
2019-05-07T22:54:52.404Z,40.00
2019-05-07T22:57:38.966Z,40.10
2019-05-07T23:00:12.298Z,40.00
2019-05-07T23:02:42.798Z,40.10
2019-05-07T23:05:13.597Z,40.00
2019-05-07T23:07:44.002Z,40.00
2019-05-07T23:10:13.402Z,40.10
2019-05-07T23:12:42.727Z,40.00
2019-05-07T23:15:12.012Z,40.00
2019-05-07T23:17:41.288Z,40.00
2019-05-07T23:20:10.546Z,40.10
2019-05-07T23:22:39.805Z,40.00
2019-05-07T23:25:09.011Z,40.00
2019-05-07T23:27:37.980Z,40.00
2019-05-07T23:30:07.246Z,40.00
2019-05-07T23:32:36.700Z,40.00
2019-05-07T23:35:06.018Z,40.00
2019-05-07T23:37:35.523Z,40.00
2019-05-07T23:40:12.204Z,40.00
2019-05-07T23:42:43.014Z,40.00
2019-05-07T23:45:12.642Z,40.10
2019-05-07T23:47:44.443Z,40.00
2019-05-07T23:50:12.636Z,40.10
2019-05-07T23:52:46.183Z,40.10
2019-05-07T23:55:15.380Z,40.10
2019-05-07T23:57:44.471Z,40.00
